createdAt,value
2022-10-15T00:01:39.591Z,99208.66
2022-10-15T00:04:07.428Z,99206.16
2022-10-15T00:06:35.547Z,99204.91
2022-10-15T00:09:04.417Z,99205.81
2022-10-15T00:11:32.286Z,99196.94
2022-10-15T00:14:00.942Z,99191.50
2022-10-15T00:16:29.695Z,99194.06
2022-10-15T00:18:59.742Z,99204.72
2022-10-15T00:21:27.808Z,99196.00
2022-10-15T00:23:56.127Z,99201.44
2022-10-15T00:26:28.071Z,99203.38
2022-10-15T00:29:00.761Z,99209.59
2022-10-15T00:31:32.014Z,99206.91
2022-10-15T00:34:01.830Z,99201.22
2022-10-15T00:36:33.415Z,99195.53
2022-10-15T00:39:01.729Z,99190.75
2022-10-15T00:41:35.655Z,99193.94
2022-10-15T00:44:26.624Z,99186.66
2022-10-15T00:47:14.069Z,99182.22
2022-10-15T00:49:58.838Z,99174.94
2022-10-15T00:52:35.249Z,99168.28
2022-10-15T00:55:11.009Z,99161.97
2022-10-15T00:57:40.359Z,99171.31
2022-10-15T01:00:15.163Z,99170.53
2022-10-15T01:02:45.414Z,99183.81
2022-10-15T01:05:17.452Z,99175.28
2022-10-15T01:07:45.371Z,99178.75
2022-10-15T01:10:16.265Z,99168.63
2022-10-15T01:13:10.190Z,99166.09
2022-10-15T01:15:49.112Z,99165.13
2022-10-15T01:18:29.129Z,99160.84
2022-10-15T01:21:23.868Z,99156.41
2022-10-15T01:24:15.656Z,99168.28
2022-10-15T01:27:23.661Z,99174.47
2022-10-15T01:30:26.049Z,99169.41
2022-10-15T01:33:08.848Z,99176.69
2022-10-15T01:36:12.697Z,99177.19
2022-10-15T01:39:00.666Z,99163.41
2022-10-15T01:41:59.631Z,99170.84
2022-10-15T01:44:51.780Z,99169.75
2022-10-15T01:47:57.304Z,99160.75
2022-10-15T01:50:30.846Z,99162.63
2022-10-15T01:53:02.311Z,99162.16
2022-10-15T01:55:31.947Z,99162.16
2022-10-15T01:58:05.229Z,99163.56
2022-10-15T02:00:32.940Z,99157.09
2022-10-15T02:03:04.497Z,99156.47
2022-10-15T02:06:06.302Z,99154.06
2022-10-15T02:08:52.686Z,99164.88
2022-10-15T02:11:54.825Z,99167.41
2022-10-15T02:14:41.371Z,99164.41
2022-10-15T02:17:11.253Z,99163.59
2022-10-15T02:19:49.635Z,99160.25
2022-10-15T02:22:22.260Z,99159.47
2022-10-15T02:25:05.323Z,99152.69
2022-10-15T02:27:35.547Z,99160.72
2022-10-15T02:30:08.208Z,99159.94
2022-10-15T02:32:41.285Z,99162.13
2022-10-15T02:35:11.974Z,99168.47
2022-10-15T02:37:49.764Z,99175.28
2022-10-15T02:40:27.849Z,99167.97
2022-10-15T02:42:56.336Z,99162.91
2022-10-15T02:45:24.088Z,99156.59
2022-10-15T02:47:51.803Z,99156.44
2022-10-15T02:50:20.045Z,99168.47
2022-10-15T02:52:47.780Z,99167.19
2022-10-15T02:55:16.038Z,99163.91
2022-10-15T02:57:43.709Z,99155.81
2022-10-15T03:00:12.148Z,99164.53
2022-10-15T03:02:41.629Z,99145.88
2022-10-15T03:05:09.781Z,99152.97
2022-10-15T03:07:37.974Z,99153.16
2022-10-15T03:10:06.474Z,99148.22
2022-10-15T03:12:35.112Z,99145.56
2022-10-15T03:15:03.089Z,99137.94
2022-10-15T03:17:32.110Z,99144.91
2022-10-15T03:19:59.811Z,99151.56
2022-10-15T03:22:27.496Z,99141.88
2022-10-15T03:24:55.493Z,99153.13
2022-10-15T03:27:26.262Z,99148.50
2022-10-15T03:29:54.631Z,99150.56
2022-10-15T03:32:24.771Z,99148.03
2022-10-15T03:34:53.252Z,99144.72
2022-10-15T03:37:22.286Z,99151.69
2022-10-15T03:39:50.114Z,99148.66
2022-10-15T03:42:19.655Z,99153.69
2022-10-15T03:44:47.944Z,99156.06
2022-10-15T03:47:19.152Z,99156.06
2022-10-15T03:49:48.927Z,99163.53
2022-10-15T03:52:17.461Z,99173.81
2022-10-15T03:54:46.913Z,99160.75
2022-10-15T03:57:17.687Z,99168.97
2022-10-15T03:59:53.878Z,99165.31
2022-10-15T04:02:24.802Z,99167.53
2022-10-15T04:04:54.111Z,99170.22
2022-10-15T04:07:22.367Z,99175.56
2022-10-15T04:09:50.398Z,99170.81
2022-10-15T04:12:44.311Z,99169.53
2022-10-15T04:15:16.680Z,99162.09
2022-10-15T04:17:59.421Z,99155.00
2022-10-15T04:20:28.959Z,99154.69
2022-10-15T04:23:13.599Z,99156.56
2022-10-15T04:25:46.346Z,99156.22
2022-10-15T04:28:18.985Z,99169.97
2022-10-15T04:30:47.714Z,99169.19
2022-10-15T04:33:16.535Z,99169.34
2022-10-15T04:35:45.111Z,99161.41
2022-10-15T04:38:17.128Z,99163.94
2022-10-15T04:41:14.167Z,99172.31
2022-10-15T04:44:01.698Z,99166.97
2022-10-15T04:46:32.063Z,99168.84
2022-10-15T04:49:06.347Z,99167.56
2022-10-15T04:51:34.071Z,99166.78
2022-10-15T04:54:13.309Z,99176.88
2022-10-15T04:56:56.605Z,99171.03
2022-10-15T04:59:24.267Z,99168.34
2022-10-15T05:02:11.882Z,99172.63
2022-10-15T05:04:39.839Z,99176.41
2022-10-15T05:07:07.904Z,99181.75
2022-10-15T05:09:37.253Z,99184.28
2022-10-15T05:12:06.373Z,99177.47
2022-10-15T05:14:35.902Z,99180.31
2022-10-15T05:17:08.848Z,99178.91
2022-10-15T05:19:40.834Z,99182.38
2022-10-15T05:22:15.924Z,99180.78
2022-10-15T05:24:50.122Z,99183.94
2022-10-15T05:27:26.880Z,99187.75
2022-10-15T05:29:54.744Z,99190.28
2022-10-15T05:34:52.651Z,99196.28
2022-10-15T05:37:20.554Z,99198.50
2022-10-15T05:39:49.616Z,99197.88
2022-10-15T05:42:17.522Z,99214.66
2022-10-15T05:44:57.444Z,99214.69
2022-10-15T05:47:25.718Z,99218.66
2022-10-15T05:50:11.894Z,99212.84
2022-10-15T05:52:44.385Z,99217.59
2022-10-15T05:55:21.014Z,99218.25
2022-10-15T05:57:49.008Z,99209.38
2022-10-15T06:00:17.191Z,99213.19
2022-10-15T06:05:21.942Z,99220.81
2022-10-15T06:07:49.690Z,99222.38
2022-10-15T06:10:17.605Z,99221.78
2022-10-15T06:12:52.639Z,99226.22
2022-10-15T06:15:20.444Z,99230.50
2022-10-15T06:17:48.161Z,99234.00
2022-10-15T06:20:16.047Z,99241.44
2022-10-15T06:22:43.694Z,99246.06
2022-10-15T06:25:11.507Z,99255.09
2022-10-15T06:27:39.228Z,99252.56
2022-10-15T06:30:08.862Z,99246.38
2022-10-15T06:32:36.471Z,99247.31
2022-10-15T06:35:04.633Z,99258.25
2022-10-15T06:37:34.432Z,99244.63
2022-10-15T06:40:02.143Z,99238.28
2022-10-15T06:42:29.833Z,99229.53
2022-10-15T06:44:57.539Z,99244.88
2022-10-15T06:47:25.684Z,99242.78
2022-10-15T06:49:53.783Z,99251.59
2022-10-15T06:52:21.470Z,99246.47
2022-10-15T06:54:49.159Z,99244.97
2022-10-15T06:57:20.435Z,99246.19
2022-10-15T06:59:48.209Z,99248.81
2022-10-15T07:02:17.275Z,99243.31
2022-10-15T07:04:46.205Z,99234.38
2022-10-15T07:07:19.054Z,99233.97
2022-10-15T07:09:47.639Z,99242.28
2022-10-15T07:12:16.407Z,99242.66
2022-10-15T07:14:44.081Z,99239.66
2022-10-15T07:17:11.741Z,99239.94
2022-10-15T07:19:39.529Z,99230.38
2022-10-15T07:22:07.295Z,99237.66
2022-10-15T07:24:35.040Z,99225.19
2022-10-15T07:27:07.992Z,99223.84
2022-10-15T07:29:44.711Z,99218.78
2022-10-15T07:32:12.479Z,99225.22
2022-10-15T07:34:40.196Z,99211.91
2022-10-15T07:37:07.931Z,99207.56
2022-10-15T07:39:37.800Z,99192.00
2022-10-15T07:42:08.556Z,99192.13
2022-10-15T07:44:36.290Z,99185.41
2022-10-15T07:47:08.133Z,99187.50
2022-10-15T07:49:35.819Z,99181.91
2022-10-15T07:52:03.594Z,99180.47
2022-10-15T07:54:33.679Z,99183.66
2022-10-15T07:57:01.504Z,99183.88
2022-10-15T07:59:29.193Z,99183.72
2022-10-15T08:01:56.853Z,99187.84
2022-10-15T08:04:24.611Z,99186.69
2022-10-15T08:06:52.355Z,99174.63
2022-10-15T08:09:20.215Z,99162.34
2022-10-15T08:11:47.892Z,99168.53
2022-10-15T08:14:18.491Z,99177.47
2022-10-15T08:16:46.119Z,99176.75
2022-10-15T08:19:17.464Z,99169.31
2022-10-15T08:21:47.495Z,99177.06
2022-10-15T08:24:15.457Z,99170.59
2022-10-15T08:26:43.512Z,99187.81
2022-10-15T08:29:11.656Z,99185.16
2022-10-15T08:31:40.388Z,99187.44
2022-10-15T08:34:08.533Z,99179.53
2022-10-15T08:36:36.814Z,99183.22
2022-10-15T08:39:07.337Z,99184.72
2022-10-15T08:41:56.185Z,99184.25
2022-10-15T08:44:26.179Z,99183.09
2022-10-15T08:47:07.376Z,99172.38
2022-10-15T08:49:51.197Z,99178.44
2022-10-15T08:52:43.276Z,99174.69
2022-10-15T08:55:18.394Z,99174.00
2022-10-15T08:58:44.952Z,99184.53
2022-10-15T09:01:29.349Z,99173.28
2022-10-15T09:04:37.790Z,99177.38
2022-10-15T09:07:35.317Z,99180.53
2022-10-15T09:10:19.434Z,99178.38
2022-10-15T09:12:55.609Z,99167.44
2022-10-15T09:15:28.005Z,99172.75
2022-10-15T09:17:56.415Z,99173.94
2022-10-15T09:20:34.471Z,99168.84
2022-10-15T09:23:03.072Z,99162.22
2022-10-15T09:25:36.809Z,99168.94
2022-10-15T09:28:18.677Z,99175.59
2022-10-15T09:30:56.799Z,99166.59
2022-10-15T09:33:34.349Z,99162.63
2022-10-15T09:36:29.328Z,99167.25
2022-10-15T09:39:54.120Z,99163.63
2022-10-15T09:42:37.768Z,99167.09
2022-10-15T09:45:16.279Z,99163.34
2022-10-15T09:47:45.207Z,99170.72
2022-10-15T09:50:15.177Z,99163.25
2022-10-15T09:53:05.214Z,99159.22
2022-10-15T09:56:01.000Z,99152.88
2022-10-15T09:58:50.043Z,99145.22
2022-10-15T10:01:32.716Z,99150.19
2022-10-15T10:04:21.576Z,99153.66
2022-10-15T10:06:59.281Z,99153.59
2022-10-15T10:09:39.609Z,99140.97
2022-10-15T10:12:23.243Z,99140.19
2022-10-15T10:15:04.527Z,99148.19
2022-10-15T10:17:32.866Z,99136.28
2022-10-15T10:20:09.343Z,99139.03
2022-10-15T10:22:54.568Z,99131.44
2022-10-15T10:25:36.208Z,99133.00
2022-10-15T10:28:05.642Z,99133.25
2022-10-15T10:30:39.041Z,99128.63
2022-10-15T10:33:07.480Z,99125.50
2022-10-15T10:35:50.965Z,99116.28
2022-10-15T10:38:31.751Z,99106.25
2022-10-15T10:41:08.638Z,99094.81
2022-10-15T10:43:40.544Z,99109.63
2022-10-15T10:46:16.853Z,99103.56
2022-10-15T10:48:53.482Z,99090.78
2022-10-15T10:51:27.224Z,99091.63
2022-10-15T10:54:12.267Z,99081.91
2022-10-15T10:56:45.264Z,99072.16
2022-10-15T10:59:26.934Z,99083.09
2022-10-15T11:01:56.882Z,99068.09
2022-10-15T11:04:30.485Z,99060.00
2022-10-15T11:07:07.292Z,99062.56
2022-10-15T11:10:03.601Z,99056.66
2022-10-15T11:12:50.264Z,99057.44
2022-10-15T11:15:45.033Z,99051.31
2022-10-15T11:18:43.810Z,99048.78
2022-10-15T11:21:27.484Z,99054.25
2022-10-15T11:24:09.981Z,99047.03
2022-10-15T11:27:35.726Z,99040.81
2022-10-15T11:30:19.615Z,99039.00
2022-10-15T11:33:09.450Z,99029.84
2022-10-15T11:35:54.771Z,99023.84
2022-10-15T11:39:24.385Z,99024.41
2022-10-15T11:42:18.414Z,99023.84
2022-10-15T11:45:42.502Z,99016.94
2022-10-15T11:48:27.304Z,99011.09
2022-10-15T11:51:27.681Z,99013.56
2022-10-15T11:54:35.240Z,99004.56
2022-10-15T11:57:13.144Z,99003.78
2022-10-15T11:59:52.275Z,99007.66
2022-10-15T12:02:30.931Z,98999.38
2022-10-15T12:05:06.348Z,99000.16
2022-10-15T12:07:50.392Z,99002.00
2022-10-15T12:10:58.852Z,99004.06
2022-10-15T12:13:59.654Z,99005.13
2022-10-15T12:16:45.112Z,99006.19
2022-10-15T12:19:28.821Z,98989.72
2022-10-15T12:21:57.329Z,98988.09
2022-10-15T12:24:40.558Z,98972.84
2022-10-15T12:27:20.051Z,98982.09
2022-10-15T12:30:04.079Z,98986.25
2022-10-15T12:32:48.818Z,98990.09
2022-10-15T12:35:16.651Z,98980.59
2022-10-15T12:37:48.153Z,98971.84
2022-10-15T12:40:31.677Z,98975.78
2022-10-15T12:43:16.271Z,98979.38
2022-10-15T12:45:56.458Z,98975.00
2022-10-15T12:48:43.611Z,98978.19
2022-10-15T12:51:17.301Z,98980.50
2022-10-15T12:53:47.893Z,98974.28
2022-10-15T12:56:15.577Z,98975.53
2022-10-15T12:58:46.998Z,98968.03
2022-10-15T13:01:14.660Z,98965.69
2022-10-15T13:03:54.757Z,98970.38
2022-10-15T13:06:22.642Z,98969.41
2022-10-15T13:09:09.995Z,98960.88
2022-10-15T13:11:53.188Z,98959.56
2022-10-15T13:14:39.624Z,98967.84
2022-10-15T13:17:19.961Z,98958.78
2022-10-15T13:20:08.040Z,98962.63
2022-10-15T13:22:37.434Z,98963.13
2022-10-15T13:25:16.352Z,98961.81
2022-10-15T13:27:44.094Z,98962.06
2022-10-15T13:30:17.097Z,98954.00
2022-10-15T13:32:52.764Z,98963.06
2022-10-15T13:35:32.483Z,98951.75
2022-10-15T13:38:02.916Z,98956.63
2022-10-15T13:40:32.826Z,98965.44
2022-10-15T13:43:06.799Z,98965.44
2022-10-15T13:45:34.768Z,98956.13
2022-10-15T13:48:02.613Z,98960.25
2022-10-15T13:50:36.317Z,98957.13
2022-10-15T13:53:34.680Z,98948.34
2022-10-15T13:56:36.911Z,98963.88
2022-10-15T13:59:05.270Z,98952.44
2022-10-15T14:01:35.317Z,98952.94
2022-10-15T14:04:04.736Z,98947.25
2022-10-15T14:06:38.607Z,98945.63
2022-10-15T14:09:40.059Z,98949.00
2022-10-15T14:12:11.265Z,98945.13
2022-10-15T14:14:48.181Z,98950.56
2022-10-15T14:17:26.332Z,98941.97
2022-10-15T14:20:27.452Z,98952.63
2022-10-15T14:22:54.813Z,98951.59
2022-10-15T14:25:26.818Z,98953.38
2022-10-15T14:27:54.815Z,98948.94
2022-10-15T14:30:36.782Z,98946.91
2022-10-15T14:33:05.063Z,98956.94
2022-10-15T14:35:37.488Z,98959.06
2022-10-15T14:38:17.246Z,98963.66
2022-10-15T14:41:06.543Z,98954.38
2022-10-15T14:43:38.733Z,98956.09
2022-10-15T14:46:18.796Z,98948.09
2022-10-15T14:48:47.675Z,98952.44
2022-10-15T14:51:25.917Z,98963.56
2022-10-15T14:53:54.380Z,98954.00
2022-10-15T14:56:30.196Z,98956.81
2022-10-15T14:58:58.976Z,98956.97
2022-10-15T15:01:27.777Z,98956.91
2022-10-15T15:03:57.645Z,98959.47
2022-10-15T15:06:25.731Z,98962.75
2022-10-15T15:08:53.435Z,98964.31
2022-10-15T15:11:25.670Z,98957.81
2022-10-15T15:13:55.505Z,98959.84
2022-10-15T15:16:23.307Z,98971.72
2022-10-15T15:18:51.492Z,98965.22
2022-10-15T15:21:24.948Z,98961.28
2022-10-15T15:23:52.857Z,98955.72
2022-10-15T15:26:20.544Z,98964.75
2022-10-15T15:28:48.244Z,98969.06
2022-10-15T15:31:19.247Z,98967.91
2022-10-15T15:33:47.024Z,98965.16
2022-10-15T15:36:20.914Z,98967.88
2022-10-15T15:38:51.677Z,98967.16
2022-10-15T15:41:22.587Z,98962.13
2022-10-15T15:43:51.798Z,98970.09
2022-10-15T15:46:19.518Z,98971.66
2022-10-15T15:48:47.217Z,98972.75
2022-10-15T15:51:21.320Z,98972.72
2022-10-15T15:53:49.427Z,98977.31
2022-10-15T15:56:17.261Z,98980.06
2022-10-15T15:58:45.703Z,98988.63
2022-10-15T16:01:13.430Z,98993.72
2022-10-15T16:03:41.137Z,98997.78
2022-10-15T16:06:09.471Z,99008.31
2022-10-15T16:08:38.692Z,99011.22
2022-10-15T16:25:44.432Z,99044.59
2022-10-15T16:28:12.312Z,99049.38
2022-10-15T16:30:40.082Z,99055.31
2022-10-15T16:35:40.887Z,99067.91
2022-10-15T16:38:09.166Z,99070.72
2022-10-15T16:40:38.201Z,99071.28
2022-10-15T16:43:05.847Z,99072.34
2022-10-15T16:45:33.587Z,99078.47
2022-10-15T16:48:01.253Z,99076.34
2022-10-15T16:50:28.950Z,99075.75
2022-10-15T16:52:56.674Z,99079.75
2022-10-15T16:55:24.327Z,99080.16
2022-10-15T16:57:51.974Z,99095.97
2022-10-15T17:00:20.331Z,99097.84
2022-10-15T17:02:48.158Z,99083.72
2022-10-15T17:05:17.341Z,99087.41
2022-10-15T17:07:47.734Z,99088.16
2022-10-15T17:10:16.080Z,99092.00
2022-10-15T17:12:43.937Z,99090.91
2022-10-15T17:15:12.350Z,99094.72
2022-10-15T17:17:40.332Z,99106.22
2022-10-15T17:20:09.373Z,99106.44
2022-10-15T17:22:37.761Z,99108.44
2022-10-15T17:25:06.244Z,99109.25
2022-10-15T17:27:35.782Z,99104.94
2022-10-15T17:30:04.341Z,99114.03
2022-10-15T17:32:32.031Z,99113.28
2022-10-15T17:35:04.313Z,99114.91
2022-10-15T17:40:06.976Z,99120.97
2022-10-15T17:42:36.990Z,99111.56
2022-10-15T17:45:06.040Z,99123.06
2022-10-15T17:47:33.766Z,99114.97
2022-10-15T17:50:01.649Z,99114.63
2022-10-15T17:52:30.075Z,99117.41
2022-10-15T17:54:57.924Z,99116.25
2022-10-15T17:57:25.823Z,99121.03
2022-10-15T17:59:53.779Z,99128.09
2022-10-15T18:02:21.587Z,99127.13
2022-10-15T18:04:49.374Z,99132.84
2022-10-15T18:07:18.915Z,99127.16
2022-10-15T18:09:48.776Z,99134.84
2022-10-15T18:12:17.583Z,99134.91
2022-10-15T18:14:45.376Z,99133.72
2022-10-15T18:17:15.483Z,99136.69
2022-10-15T18:19:43.419Z,99141.22
2022-10-15T18:22:11.363Z,99149.06
2022-10-15T18:24:39.173Z,99147.28
2022-10-15T18:27:07.719Z,99153.22
2022-10-15T18:29:36.135Z,99157.34
2022-10-15T18:32:04.018Z,99157.72
2022-10-15T18:34:33.523Z,99160.50
2022-10-15T18:37:01.658Z,99151.47
2022-10-15T18:39:29.647Z,99164.84
2022-10-15T18:41:57.422Z,99168.38
2022-10-15T18:44:25.396Z,99157.34
2022-10-15T18:46:53.315Z,99166.44
2022-10-15T18:49:22.301Z,99178.22
2022-10-15T18:51:54.232Z,99191.41
2022-10-15T18:54:22.808Z,99182.56
2022-10-15T18:56:51.169Z,99186.09
2022-10-15T18:59:20.262Z,99194.75
2022-10-15T19:01:49.740Z,99201.03
2022-10-15T19:04:20.153Z,99203.38
2022-10-15T19:06:55.147Z,99207.72
2022-10-15T19:09:26.713Z,99208.50
2022-10-15T19:11:57.005Z,99214.78
2022-10-15T19:14:28.365Z,99214.38
2022-10-15T19:16:56.779Z,99216.91
2022-10-15T19:19:26.105Z,99217.53
2022-10-15T19:21:57.923Z,99224.59
2022-10-15T19:24:25.802Z,99231.06
2022-10-15T19:26:54.169Z,99224.56
2022-10-15T19:29:22.028Z,99226.34
2022-10-15T19:31:54.751Z,99235.19
2022-10-15T19:34:23.313Z,99232.00
2022-10-15T19:36:51.353Z,99230.81
2022-10-15T19:39:22.687Z,99234.47
2022-10-15T19:41:52.052Z,99239.75
2022-10-15T19:44:25.485Z,99250.88
2022-10-15T19:46:57.343Z,99250.03
2022-10-15T19:49:26.359Z,99251.41
2022-10-15T19:51:55.716Z,99245.88
2022-10-15T19:54:26.463Z,99253.72
2022-10-15T19:56:54.117Z,99246.22
2022-10-15T19:59:21.882Z,99254.06
2022-10-15T20:01:49.588Z,99255.97
2022-10-15T20:04:19.980Z,99255.50
2022-10-15T20:06:49.252Z,99256.44
2022-10-15T20:09:16.972Z,99257.84
2022-10-15T20:11:45.354Z,99274.13
2022-10-15T20:14:13.107Z,99255.84
2022-10-15T20:16:40.833Z,99257.00
2022-10-15T20:19:08.516Z,99274.81
2022-10-15T20:21:36.202Z,99270.63
2022-10-15T20:24:04.899Z,99281.59
2022-10-15T20:26:33.438Z,99272.09
2022-10-15T20:29:01.405Z,99278.38
2022-10-15T20:31:32.823Z,99283.03
2022-10-15T20:34:02.305Z,99281.66
2022-10-15T20:36:30.603Z,99283.03
2022-10-15T20:39:02.364Z,99290.69
2022-10-15T20:41:31.104Z,99291.31
2022-10-15T20:43:58.831Z,99297.13
2022-10-15T20:46:34.194Z,99298.22
2022-10-15T20:51:44.719Z,99299.72
2022-10-15T20:54:14.080Z,99301.31
2022-10-15T20:56:42.689Z,99307.81
2022-10-15T20:59:11.165Z,99308.41
2022-10-15T21:01:39.413Z,99308.41
2022-10-15T21:04:07.593Z,99306.06
2022-10-15T21:06:35.435Z,99304.41
2022-10-15T21:09:03.723Z,99305.88
2022-10-15T21:11:31.628Z,99310.69
2022-10-15T21:14:00.593Z,99320.47
2022-10-15T21:16:28.633Z,99315.56
2022-10-15T21:18:56.596Z,99322.31
2022-10-15T21:21:24.270Z,99318.88
2022-10-15T21:23:52.687Z,99328.66
2022-10-15T21:26:21.602Z,99334.06
2022-10-15T21:28:57.548Z,99331.53
2022-10-15T21:31:26.868Z,99325.91
2022-10-15T21:33:57.781Z,99320.22
2022-10-15T21:36:27.982Z,99323.56
2022-10-15T21:39:02.721Z,99317.22
2022-10-15T21:41:33.111Z,99322.88
2022-10-15T21:44:02.593Z,99315.91
2022-10-15T21:46:31.557Z,99324.53
2022-10-15T21:49:01.424Z,99327.59
2022-10-15T21:51:33.964Z,99330.69
2022-10-15T21:54:04.189Z,99335.00
2022-10-15T21:56:32.504Z,99329.47
2022-10-15T21:59:00.922Z,99340.59
2022-10-15T22:01:32.813Z,99339.09
2022-10-15T22:04:08.203Z,99334.75
2022-10-15T22:06:40.191Z,99337.19
2022-10-15T22:09:10.171Z,99346.56
2022-10-15T22:11:41.520Z,99354.56
2022-10-15T22:14:12.990Z,99351.41
2022-10-15T22:16:42.372Z,99354.09
2022-10-15T22:19:14.428Z,99346.66
2022-10-15T22:21:42.581Z,99356.03
2022-10-15T22:24:17.865Z,99336.97
2022-10-15T22:26:52.328Z,99355.94
2022-10-15T22:29:34.470Z,99363.56
2022-10-15T22:32:03.033Z,99369.63
2022-10-15T22:34:31.965Z,99368.06
2022-10-15T22:36:59.660Z,99361.75
2022-10-15T22:39:27.625Z,99368.13
2022-10-15T22:41:55.259Z,99359.63
2022-10-15T22:44:23.053Z,99366.97
2022-10-15T22:46:50.802Z,99374.31
2022-10-15T22:49:21.699Z,99369.56
2022-10-15T22:51:50.723Z,99374.00
2022-10-15T22:54:22.045Z,99376.78
2022-10-15T22:56:51.353Z,99375.22
2022-10-15T22:59:19.573Z,99374.31
2022-10-15T23:01:47.515Z,99376.22
2022-10-15T23:04:16.704Z,99373.56
2022-10-15T23:06:44.813Z,99388.03
2022-10-15T23:09:17.840Z,99379.00
2022-10-15T23:11:46.632Z,99383.44
2022-10-15T23:14:16.764Z,99383.44
2022-10-15T23:16:47.612Z,99382.81
2022-10-15T23:19:21.673Z,99387.09
2022-10-15T23:21:52.025Z,99391.75
2022-10-15T23:24:23.686Z,99397.69
2022-10-15T23:26:52.810Z,99396.59
2022-10-15T23:29:24.421Z,99404.69
2022-10-15T23:31:53.856Z,99409.78
2022-10-15T23:34:26.471Z,99412.50
2022-10-15T23:36:54.713Z,99409.66
2022-10-15T23:39:26.442Z,99410.66
2022-10-15T23:41:55.472Z,99410.69
2022-10-15T23:44:25.720Z,99410.56
2022-10-15T23:46:53.736Z,99410.72
2022-10-15T23:49:21.417Z,99410.72
2022-10-15T23:51:49.253Z,99426.44
2022-10-15T23:54:18.965Z,99421.81
2022-10-15T23:56:47.609Z,99419.09
2022-10-15T23:59:17.115Z,99423.72
